createdAt,value
2022-11-16T00:00:02.817Z,9.55
2022-11-16T00:02:34.335Z,9.93
2022-11-16T00:07:27.448Z,8.85
2022-11-16T00:09:54.156Z,9.75
2022-11-16T00:12:20.961Z,9.57
2022-11-16T00:14:47.569Z,9.85
2022-11-16T00:17:14.226Z,10.13
2022-11-16T00:19:42.195Z,10.07
2022-11-16T00:22:08.805Z,10.63
2022-11-16T00:24:35.573Z,9.27
2022-11-16T00:27:02.515Z,10.30
2022-11-16T00:29:29.242Z,10.57
2022-11-16T00:31:56.144Z,10.25
2022-11-16T00:34:23.438Z,10.57
2022-11-16T00:36:51.618Z,10.70
2022-11-16T00:39:18.898Z,10.90
2022-11-16T00:41:46.313Z,10.63
2022-11-16T00:44:13.599Z,10.57
2022-11-16T00:46:40.735Z,10.77
2022-11-16T00:49:07.752Z,11.18
2022-11-16T00:51:35.642Z,11.75
2022-11-16T00:54:05.460Z,11.63
2022-11-16T00:56:32.218Z,12.05
2022-11-16T00:58:58.912Z,12.02
2022-11-16T01:01:25.608Z,11.85
2022-11-16T01:03:52.506Z,12.13
2022-11-16T01:06:20.291Z,11.70
2022-11-16T01:08:46.866Z,11.88
2022-11-16T01:11:35.090Z,12.27
2022-11-16T01:14:03.694Z,11.35
2022-11-16T01:16:31.109Z,12.52
2022-11-16T01:18:57.966Z,11.73
2022-11-16T01:21:24.765Z,12.27
2022-11-16T01:23:51.917Z,12.35
2022-11-16T01:26:20.047Z,12.10
2022-11-16T01:28:46.885Z,11.65
2022-11-16T01:31:13.944Z,11.10
2022-11-16T01:33:41.022Z,12.15
2022-11-16T01:36:14.335Z,11.82
2022-11-16T01:38:42.485Z,12.13
2022-11-16T01:41:09.833Z,11.73
2022-11-16T01:43:56.291Z,11.32
2022-11-16T01:46:23.423Z,11.65
2022-11-16T01:48:54.794Z,12.23
2022-11-16T01:51:22.853Z,11.93
2022-11-16T01:53:50.055Z,11.73
2022-11-16T01:56:17.049Z,12.52
2022-11-16T01:58:43.924Z,11.50
2022-11-16T02:01:11.984Z,11.70
2022-11-16T02:03:39.405Z,11.10
2022-11-16T02:06:32.268Z,11.23
2022-11-16T02:09:36.217Z,10.45
2022-11-16T02:12:19.969Z,11.07
2022-11-16T02:15:04.365Z,11.40
2022-11-16T02:17:47.708Z,10.38
2022-11-16T02:20:42.244Z,9.80
2022-11-16T02:23:27.708Z,9.90
2022-11-16T02:26:04.695Z,10.07
2022-11-16T02:28:43.846Z,9.43
2022-11-16T02:31:16.772Z,9.98
2022-11-16T02:33:46.753Z,10.35
2022-11-16T02:36:20.438Z,9.98
2022-11-16T02:38:55.044Z,9.95
2022-11-16T02:41:25.565Z,9.75
2022-11-16T02:43:57.106Z,9.80
2022-11-16T02:46:29.230Z,9.98
2022-11-16T02:49:00.703Z,9.93
2022-11-16T02:51:29.200Z,9.65
2022-11-16T02:54:02.835Z,9.65
2022-11-16T02:56:30.248Z,10.75
2022-11-16T02:58:58.497Z,9.82
2022-11-16T03:01:34.450Z,10.48
2022-11-16T03:04:06.019Z,10.07
2022-11-16T03:06:39.446Z,9.65
2022-11-16T03:09:09.790Z,10.00
2022-11-16T03:11:59.442Z,9.88
2022-11-16T03:14:30.823Z,10.10
2022-11-16T03:17:00.522Z,10.52
2022-11-16T03:19:33.623Z,10.63
2022-11-16T03:22:06.958Z,11.13
2022-11-16T03:24:33.724Z,10.63
2022-11-16T03:27:06.107Z,11.38
2022-11-16T03:29:37.743Z,11.75
2022-11-16T03:32:13.520Z,11.18
2022-11-16T03:34:45.519Z,11.48
2022-11-16T03:37:13.281Z,12.30
2022-11-16T03:39:42.069Z,12.73
2022-11-16T03:47:06.937Z,10.65
2022-11-16T03:49:33.551Z,11.43
2022-11-16T03:52:00.266Z,11.90
2022-11-16T03:54:26.908Z,10.82
2022-11-16T03:56:53.483Z,11.00
2022-11-16T03:59:20.121Z,11.15
2022-11-16T04:01:46.757Z,11.05
2022-11-16T04:04:34.765Z,11.48
2022-11-16T04:07:20.010Z,12.07
2022-11-16T04:10:05.518Z,11.60
2022-11-16T04:12:58.129Z,11.63
2022-11-16T04:15:43.217Z,11.93
2022-11-16T04:18:29.689Z,11.95
2022-11-16T04:21:16.929Z,10.50
2022-11-16T04:24:02.796Z,10.55
2022-11-16T04:26:48.009Z,10.20
2022-11-16T04:29:14.770Z,9.30
2022-11-16T04:32:00.470Z,10.27
2022-11-16T04:34:45.609Z,11.00
2022-11-16T04:37:34.663Z,9.77
2022-11-16T04:40:01.262Z,9.93
2022-11-16T04:42:27.881Z,10.20
2022-11-16T04:45:12.933Z,9.90
2022-11-16T04:47:39.887Z,9.98
2022-11-16T04:50:07.261Z,10.27
2022-11-16T04:52:35.186Z,10.63
2022-11-16T04:55:02.079Z,10.07
2022-11-16T04:57:28.659Z,10.32
2022-11-16T04:59:55.281Z,10.10
2022-11-16T05:02:21.943Z,9.93
2022-11-16T05:04:48.648Z,9.82
2022-11-16T05:07:15.817Z,10.57
2022-11-16T05:09:45.339Z,9.02
2022-11-16T05:12:14.868Z,10.95
2022-11-16T05:14:41.902Z,11.20
2022-11-16T05:17:08.919Z,11.60
2022-11-16T05:19:54.661Z,10.98
2022-11-16T05:22:21.730Z,11.23
2022-11-16T05:24:49.634Z,10.48
2022-11-16T05:27:18.252Z,10.20
2022-11-16T05:29:45.478Z,9.75
2022-11-16T05:32:13.124Z,10.02
2022-11-16T05:34:39.912Z,8.27
2022-11-16T05:37:10.166Z,8.65
2022-11-16T05:39:37.364Z,8.20
2022-11-16T05:42:05.861Z,7.88
2022-11-16T05:44:32.775Z,8.10
2022-11-16T05:46:59.706Z,7.82
2022-11-16T05:49:26.621Z,7.70
2022-11-16T05:51:53.344Z,7.63
2022-11-16T05:54:22.382Z,7.55
2022-11-16T05:56:49.758Z,6.90
2022-11-16T05:59:19.489Z,6.25
2022-11-16T06:01:47.016Z,5.97
2022-11-16T06:04:14.659Z,6.30
2022-11-16T06:06:41.640Z,5.82
2022-11-16T06:09:10.505Z,5.50
2022-11-16T06:14:05.009Z,4.77
2022-11-16T06:16:33.531Z,5.07
2022-11-16T06:19:00.667Z,4.80
2022-11-16T06:21:30.282Z,4.60
2022-11-16T06:23:56.938Z,4.15
2022-11-16T06:26:23.594Z,4.20
2022-11-16T06:28:50.191Z,3.95
2022-11-16T06:31:16.833Z,4.22
2022-11-16T06:33:45.540Z,3.67
2022-11-16T06:36:12.102Z,3.67
2022-11-16T06:38:38.744Z,3.58
2022-11-16T06:41:05.726Z,3.80
2022-11-16T06:43:32.480Z,3.40
2022-11-16T06:45:59.103Z,3.05
2022-11-16T06:48:26.370Z,3.35
2022-11-16T06:50:54.379Z,2.92
2022-11-16T06:53:27.585Z,3.40
2022-11-16T06:55:55.631Z,2.97
2022-11-16T06:58:22.371Z,3.00
2022-11-16T07:00:49.088Z,2.88
2022-11-16T07:03:16.043Z,3.05
2022-11-16T07:05:42.858Z,2.42
2022-11-16T07:08:11.027Z,2.78
2022-11-16T07:10:38.527Z,2.67
2022-11-16T07:13:05.582Z,2.72
2022-11-16T07:15:32.768Z,2.55
2022-11-16T07:18:04.584Z,2.33
2022-11-16T07:20:31.557Z,2.50
2022-11-16T07:23:00.142Z,2.70
2022-11-16T07:25:28.609Z,2.92
2022-11-16T07:27:55.335Z,2.60
2022-11-16T07:30:22.112Z,2.70
2022-11-16T07:32:48.722Z,2.20
2022-11-16T07:35:15.522Z,2.75
2022-11-16T07:37:42.159Z,2.70
2022-11-16T07:40:09.706Z,2.67
2022-11-16T07:42:37.842Z,2.97
2022-11-16T07:45:05.362Z,2.92
2022-11-16T07:47:35.774Z,3.00
2022-11-16T07:50:02.553Z,2.60
2022-11-16T07:52:29.216Z,2.70
2022-11-16T07:54:55.876Z,3.22
2022-11-16T07:57:22.441Z,3.00
2022-11-16T07:59:50.457Z,3.17
2022-11-16T08:02:17.067Z,3.37
2022-11-16T08:04:43.734Z,3.35
2022-11-16T08:07:11.553Z,4.03
2022-11-16T08:09:39.580Z,4.40
2022-11-16T08:12:06.685Z,3.80
2022-11-16T08:14:34.430Z,3.65
2022-11-16T08:17:03.591Z,4.07
2022-11-16T08:19:30.472Z,3.47
2022-11-16T08:21:57.146Z,3.92
2022-11-16T08:24:23.872Z,3.97
2022-11-16T08:26:50.997Z,3.97
2022-11-16T08:29:17.702Z,4.20
2022-11-16T08:31:45.276Z,4.20
2022-11-16T08:34:13.274Z,3.72
2022-11-16T08:36:39.983Z,4.03
2022-11-16T08:39:06.601Z,3.90
2022-11-16T08:41:35.820Z,5.00
2022-11-16T08:44:02.694Z,4.70
2022-11-16T08:46:29.567Z,4.05
2022-11-16T08:48:59.670Z,4.30
2022-11-16T08:51:27.569Z,4.63
2022-11-16T08:54:01.756Z,5.10
2022-11-16T08:56:30.072Z,4.57
2022-11-16T08:58:59.614Z,4.55
2022-11-16T09:01:28.280Z,4.25
2022-11-16T09:03:55.754Z,4.00
2022-11-16T09:06:24.233Z,4.47
2022-11-16T09:08:52.636Z,4.07
2022-11-16T09:11:21.046Z,4.03
2022-11-16T09:13:49.095Z,4.32
2022-11-16T09:16:16.985Z,3.90
2022-11-16T09:18:43.977Z,3.83
2022-11-16T09:21:10.697Z,3.90
2022-11-16T09:23:40.113Z,4.20
2022-11-16T09:26:08.225Z,3.90
2022-11-16T09:28:35.142Z,4.00
2022-11-16T09:31:04.328Z,3.50
2022-11-16T09:33:32.154Z,3.15
2022-11-16T09:36:01.821Z,3.50
2022-11-16T09:38:47.541Z,3.67
2022-11-16T09:41:29.555Z,4.22
2022-11-16T09:44:06.329Z,4.30
2022-11-16T09:46:36.889Z,3.42
2022-11-16T09:49:17.361Z,3.10
2022-11-16T09:51:49.089Z,2.60
2022-11-16T09:54:20.229Z,3.10
2022-11-16T09:56:51.732Z,2.80
2022-11-16T09:59:23.885Z,2.63
2022-11-16T10:01:54.742Z,2.85
2022-11-16T10:04:36.705Z,2.78
2022-11-16T10:07:06.325Z,2.97
2022-11-16T10:09:34.677Z,2.90
2022-11-16T10:12:11.289Z,2.75
2022-11-16T10:15:07.773Z,3.00
2022-11-16T10:17:48.220Z,2.80
2022-11-16T10:20:30.727Z,3.13
2022-11-16T10:23:07.311Z,2.42
2022-11-16T10:25:42.221Z,2.90
2022-11-16T10:28:33.555Z,2.67
2022-11-16T10:31:04.616Z,2.78
2022-11-16T10:33:37.063Z,2.55
2022-11-16T10:36:13.043Z,2.80
2022-11-16T10:38:41.498Z,2.40
2022-11-16T10:41:18.911Z,2.85
2022-11-16T10:43:49.252Z,2.47
2022-11-16T10:46:22.050Z,2.20
2022-11-16T10:48:57.622Z,2.75
2022-11-16T10:51:24.314Z,2.05
2022-11-16T10:53:53.053Z,2.28
2022-11-16T10:58:52.585Z,2.10
2022-11-16T11:01:39.293Z,2.35
2022-11-16T11:04:17.739Z,2.78
2022-11-16T11:06:46.090Z,2.65
2022-11-16T11:09:19.939Z,2.50
2022-11-16T11:12:16.706Z,2.80
2022-11-16T11:17:43.208Z,3.03
2022-11-16T11:20:21.995Z,3.17
2022-11-16T11:25:24.109Z,2.95
2022-11-16T11:28:06.857Z,3.20
2022-11-16T11:30:35.241Z,2.80
2022-11-16T11:33:12.870Z,3.13
2022-11-16T11:35:39.558Z,3.40
2022-11-16T11:38:08.650Z,3.42
2022-11-16T11:40:36.177Z,3.30
2022-11-16T11:43:05.494Z,3.20
2022-11-16T11:45:39.280Z,3.13
2022-11-16T11:48:25.576Z,3.33
2022-11-16T11:50:55.023Z,2.65
2022-11-16T11:53:39.847Z,2.72
2022-11-16T11:56:10.003Z,2.72
2022-11-16T11:58:39.987Z,2.88
2022-11-16T12:01:37.956Z,2.80
2022-11-16T12:04:34.729Z,2.35
2022-11-16T12:07:11.861Z,2.33
2022-11-16T12:09:47.723Z,2.20
2022-11-16T12:12:28.923Z,2.20
2022-11-16T12:15:17.039Z,2.13
2022-11-16T12:17:54.156Z,2.15
2022-11-16T12:20:39.126Z,2.15
2022-11-16T12:23:27.510Z,2.35
2022-11-16T12:26:02.283Z,1.90
2022-11-16T12:28:49.961Z,1.88
2022-11-16T12:34:03.896Z,2.22
2022-11-16T12:36:39.275Z,2.33
2022-11-16T12:39:22.536Z,1.90
2022-11-16T12:42:33.976Z,1.80
2022-11-16T12:45:36.237Z,1.70
2022-11-16T12:48:40.672Z,1.77
2022-11-16T12:51:18.195Z,2.25
2022-11-16T12:54:07.710Z,1.73
2022-11-16T12:56:48.900Z,1.70
2022-11-16T12:59:43.764Z,1.45
2022-11-16T13:02:24.361Z,1.52
2022-11-16T13:05:00.657Z,1.65
2022-11-16T13:07:31.415Z,1.50
2022-11-16T13:10:28.605Z,1.90
2022-11-16T13:13:22.039Z,1.90
2022-11-16T13:15:47.942Z,1.55
2022-11-16T13:18:19.043Z,1.42
2022-11-16T13:20:51.787Z,1.85
2022-11-16T13:23:27.658Z,1.55
2022-11-16T13:26:01.969Z,1.80
2022-11-16T13:28:37.414Z,1.60
2022-11-16T13:31:09.942Z,2.00
2022-11-16T13:33:49.315Z,1.67
2022-11-16T13:36:43.430Z,1.63
2022-11-16T13:39:14.732Z,1.55
2022-11-16T13:41:49.346Z,1.60
2022-11-16T13:44:26.797Z,1.00
2022-11-16T13:46:57.190Z,1.60
2022-11-16T13:49:28.502Z,1.40
2022-11-16T13:52:03.434Z,1.70
2022-11-16T13:57:24.595Z,1.88
2022-11-16T14:00:07.830Z,1.35
2022-11-16T14:02:36.485Z,1.50
2022-11-16T14:05:04.870Z,1.65
2022-11-16T14:07:40.477Z,1.17
2022-11-16T14:10:07.903Z,1.25
2022-11-16T14:12:57.818Z,1.40
2022-11-16T14:15:27.277Z,1.27
2022-11-16T14:17:59.618Z,1.17
2022-11-16T14:20:47.841Z,1.45
2022-11-16T14:23:25.787Z,1.50
2022-11-16T14:26:05.435Z,1.50
2022-11-16T14:28:50.468Z,1.38
2022-11-16T14:31:24.909Z,1.50
2022-11-16T14:33:54.642Z,1.50
2022-11-16T14:36:37.817Z,1.63
2022-11-16T14:39:26.301Z,1.35
2022-11-16T14:41:54.182Z,1.80
2022-11-16T14:44:26.247Z,1.48
2022-11-16T14:46:53.397Z,1.50
2022-11-16T14:49:21.547Z,1.58
2022-11-16T14:51:51.457Z,1.33
2022-11-16T14:54:25.530Z,1.40
2022-11-16T14:56:57.207Z,1.48
2022-11-16T14:59:25.994Z,1.63
2022-11-16T15:04:21.917Z,1.25
2022-11-16T15:09:24.899Z,1.35
2022-11-16T15:12:11.297Z,1.58
2022-11-16T15:14:44.361Z,1.50
2022-11-16T15:17:17.139Z,1.50
2022-11-16T15:19:52.758Z,1.30
2022-11-16T15:22:19.949Z,1.30
2022-11-16T15:24:55.513Z,1.02
2022-11-16T15:27:33.344Z,1.13
2022-11-16T15:30:03.507Z,1.20
2022-11-16T15:32:32.065Z,1.30
2022-11-16T15:35:03.968Z,1.33
2022-11-16T15:37:32.184Z,1.50
2022-11-16T15:40:00.838Z,1.60
2022-11-16T15:42:28.601Z,1.75
2022-11-16T15:44:56.270Z,1.85
2022-11-16T15:47:24.802Z,1.83
2022-11-16T15:49:53.076Z,1.80
2022-11-16T15:52:41.379Z,2.28
2022-11-16T15:55:21.397Z,2.30
2022-11-16T15:57:59.271Z,2.35
2022-11-16T16:00:27.862Z,2.50
2022-11-16T16:03:02.388Z,2.70
2022-11-16T16:05:40.703Z,2.72
2022-11-16T16:08:26.703Z,3.00
2022-11-16T16:11:06.590Z,2.50
2022-11-16T16:13:36.379Z,2.88
2022-11-16T16:16:31.459Z,2.30
2022-11-16T16:19:06.692Z,2.60
2022-11-16T16:21:44.832Z,2.28
2022-11-16T16:24:41.752Z,2.60
2022-11-16T16:27:13.748Z,2.15
2022-11-16T16:29:40.540Z,2.65
2022-11-16T16:32:12.759Z,2.03
2022-11-16T16:34:42.356Z,2.50
2022-11-16T16:37:11.544Z,2.28
2022-11-16T16:39:39.536Z,2.38
2022-11-16T16:42:08.381Z,2.33
2022-11-16T16:47:01.496Z,2.70
2022-11-16T16:49:31.159Z,2.70
2022-11-16T16:51:59.302Z,3.53
2022-11-16T16:54:25.991Z,3.35
2022-11-16T16:56:52.714Z,3.38
2022-11-16T16:59:19.514Z,3.30
2022-11-16T17:01:46.161Z,3.78
2022-11-16T17:04:12.822Z,3.58
2022-11-16T17:06:45.228Z,3.60
2022-11-16T17:09:14.489Z,3.30
2022-11-16T17:11:41.125Z,3.13
2022-11-16T17:14:08.146Z,2.42
2022-11-16T17:16:35.125Z,2.55
2022-11-16T17:19:02.483Z,2.50
2022-11-16T17:21:29.532Z,2.65
2022-11-16T17:23:56.422Z,2.08
2022-11-16T17:26:29.176Z,2.20
2022-11-16T17:28:56.665Z,2.50
2022-11-16T17:31:24.193Z,2.38
2022-11-16T17:33:51.071Z,2.55
2022-11-16T17:36:18.207Z,2.60
2022-11-16T17:38:45.186Z,2.58
2022-11-16T17:41:13.903Z,2.90
2022-11-16T17:43:43.686Z,2.83
2022-11-16T17:46:11.894Z,3.50
2022-11-16T17:48:39.867Z,3.33
2022-11-16T17:51:06.665Z,2.90
2022-11-16T17:53:35.350Z,3.03
2022-11-16T17:56:02.899Z,3.20
2022-11-16T17:58:30.542Z,3.03
2022-11-16T18:00:59.087Z,3.40
2022-11-16T18:03:28.263Z,2.60
2022-11-16T18:06:01.142Z,3.00
2022-11-16T18:08:27.825Z,3.20
2022-11-16T18:10:54.432Z,3.25
2022-11-16T18:13:21.260Z,3.30
2022-11-16T18:15:47.855Z,2.97
2022-11-16T18:18:16.605Z,2.83
2022-11-16T18:20:43.246Z,2.97
2022-11-16T18:23:09.876Z,2.60
2022-11-16T18:25:36.936Z,2.80
2022-11-16T18:28:03.946Z,2.90
2022-11-16T18:30:30.506Z,2.92
2022-11-16T18:32:57.130Z,3.28
2022-11-16T18:35:25.246Z,3.03
2022-11-16T18:37:51.968Z,2.92
2022-11-16T18:40:18.947Z,3.30
2022-11-16T18:42:45.975Z,3.50
2022-11-16T18:45:12.611Z,3.33
2022-11-16T18:47:39.312Z,3.15
2022-11-16T18:50:14.559Z,3.13
2022-11-16T18:52:47.446Z,3.17
2022-11-16T18:55:14.370Z,3.33
2022-11-16T18:57:40.955Z,3.35
2022-11-16T19:00:10.015Z,3.47
2022-11-16T19:02:36.624Z,2.95
2022-11-16T19:05:03.697Z,3.55
2022-11-16T19:07:31.699Z,3.25
2022-11-16T19:09:59.928Z,2.87
2022-11-16T19:12:26.526Z,3.28
2022-11-16T19:14:55.042Z,3.13
2022-11-16T19:17:24.680Z,3.17
2022-11-16T19:19:51.389Z,3.60
2022-11-16T19:22:18.321Z,3.50
2022-11-16T19:24:44.984Z,3.95
2022-11-16T19:27:13.226Z,3.33
2022-11-16T19:29:39.804Z,3.55
2022-11-16T19:32:06.396Z,3.50
2022-11-16T19:34:33.623Z,4.20
2022-11-16T19:37:02.679Z,3.70
2022-11-16T19:39:29.444Z,4.45
2022-11-16T19:41:56.022Z,4.55
2022-11-16T19:44:26.137Z,4.22
2022-11-16T19:46:54.417Z,4.65
2022-11-16T19:49:21.908Z,4.85
2022-11-16T19:51:49.282Z,4.30
2022-11-16T19:54:16.045Z,4.45
2022-11-16T19:56:43.643Z,4.22
2022-11-16T19:59:10.368Z,4.20
2022-11-16T20:01:38.359Z,3.85
2022-11-16T20:04:05.431Z,4.00
2022-11-16T20:06:34.119Z,4.00
2022-11-16T20:09:08.346Z,4.05
2022-11-16T20:11:36.668Z,3.67
2022-11-16T20:14:05.123Z,3.53
2022-11-16T20:16:38.414Z,3.75
2022-11-16T20:19:07.895Z,3.53
2022-11-16T20:21:36.897Z,3.40
2022-11-16T20:24:06.693Z,3.90
2022-11-16T20:26:35.626Z,3.88
2022-11-16T20:29:02.418Z,3.80
2022-11-16T20:31:31.030Z,3.20
2022-11-16T20:33:59.462Z,3.70
2022-11-16T20:36:29.292Z,3.47
2022-11-16T20:38:57.083Z,3.53
2022-11-16T20:41:25.179Z,3.80
2022-11-16T20:43:54.495Z,3.17
2022-11-16T20:46:23.475Z,3.42
2022-11-16T20:48:50.499Z,3.60
2022-11-16T20:51:19.821Z,3.20
2022-11-16T20:53:49.146Z,3.97
2022-11-16T20:56:17.027Z,3.50
2022-11-16T20:58:43.774Z,3.65
2022-11-16T21:01:13.219Z,3.60
2022-11-16T21:03:40.384Z,3.55
2022-11-16T21:06:08.805Z,4.03
2022-11-16T21:08:36.903Z,4.25
2022-11-16T21:11:09.782Z,4.10
2022-11-16T21:13:54.765Z,3.55
2022-11-16T21:16:21.418Z,3.67
2022-11-16T21:18:47.970Z,3.58
2022-11-16T21:21:14.886Z,3.58
2022-11-16T21:23:51.494Z,3.50
2022-11-16T21:26:21.253Z,3.35
2022-11-16T21:28:48.239Z,3.40
2022-11-16T21:31:16.895Z,3.35
2022-11-16T21:33:44.338Z,3.08
2022-11-16T21:36:13.164Z,3.20
2022-11-16T21:41:07.368Z,3.10
2022-11-16T21:43:40.419Z,3.30
2022-11-16T21:46:09.852Z,2.85
2022-11-16T21:48:36.930Z,3.60
2022-11-16T21:51:07.360Z,3.17
2022-11-16T21:53:34.927Z,2.80
2022-11-16T21:56:02.227Z,2.75
2022-11-16T21:58:29.152Z,3.08
2022-11-16T22:00:59.295Z,3.10
2022-11-16T22:03:28.092Z,3.30
2022-11-16T22:06:14.443Z,2.80
2022-11-16T22:08:41.727Z,3.00
2022-11-16T22:11:09.149Z,3.45
2022-11-16T22:13:36.865Z,3.20
2022-11-16T22:16:06.415Z,3.22
2022-11-16T22:18:33.534Z,3.10
2022-11-16T22:21:00.971Z,3.08
2022-11-16T22:23:28.399Z,2.90
2022-11-16T22:25:59.734Z,3.67
2022-11-16T22:28:26.473Z,2.83
2022-11-16T22:30:59.647Z,3.28
2022-11-16T22:33:27.755Z,2.88
2022-11-16T22:35:54.405Z,2.80
2022-11-16T22:38:21.478Z,3.40
2022-11-16T22:40:52.406Z,3.13
2022-11-16T22:43:19.979Z,3.13
2022-11-16T22:45:46.688Z,3.10
2022-11-16T22:48:14.030Z,3.30
2022-11-16T22:50:42.255Z,3.13
2022-11-16T22:53:09.099Z,2.70
2022-11-16T22:55:36.662Z,3.20
2022-11-16T22:58:03.713Z,2.92
2022-11-16T23:00:30.811Z,3.15
2022-11-16T23:02:57.543Z,3.47
2022-11-16T23:05:24.313Z,3.30
2022-11-16T23:07:55.868Z,3.10
2022-11-16T23:10:22.462Z,2.90
2022-11-16T23:13:07.762Z,3.33
2022-11-16T23:15:49.336Z,2.78
2022-11-16T23:18:18.832Z,3.30
2022-11-16T23:21:24.447Z,3.33
2022-11-16T23:24:16.102Z,3.50
2022-11-16T23:27:01.824Z,3.35
2022-11-16T23:29:28.774Z,3.10
2022-11-16T23:31:55.348Z,3.47
2022-11-16T23:34:25.046Z,3.42
2022-11-16T23:36:51.864Z,3.55
2022-11-16T23:39:19.806Z,3.33
2022-11-16T23:42:04.782Z,3.47
2022-11-16T23:44:31.341Z,3.55
2022-11-16T23:46:57.952Z,3.50
2022-11-16T23:49:24.536Z,3.42
2022-11-16T23:51:52.136Z,3.80
2022-11-16T23:54:20.065Z,3.53
2022-11-16T23:56:46.685Z,3.40
2022-11-16T23:59:13.265Z,4.03
